createdAt,value
2022-08-26T00:02:15.391Z,101189.00
2022-08-26T00:05:25.070Z,101189.59
2022-08-26T00:08:30.365Z,101194.31
2022-08-26T00:11:35.944Z,101186.66
2022-08-26T00:14:42.051Z,101186.44
2022-08-26T00:17:57.290Z,101180.78
2022-08-26T00:21:06.169Z,101176.00
2022-08-26T00:24:13.412Z,101175.59
2022-08-26T00:27:19.192Z,101162.75
2022-08-26T00:30:26.699Z,101164.78
2022-08-26T00:33:31.848Z,101164.34
2022-08-26T00:36:37.143Z,101167.03
2022-08-26T00:39:42.497Z,101164.59
2022-08-26T00:42:48.028Z,101167.66
2022-08-26T00:45:54.452Z,101169.31
2022-08-26T00:49:00.259Z,101164.97
2022-08-26T00:52:06.375Z,101164.34
2022-08-26T00:55:20.159Z,101160.00
2022-08-26T00:58:25.989Z,101162.88
2022-08-26T01:01:32.275Z,101164.09
2022-08-26T01:04:48.916Z,101157.06
2022-08-26T01:08:00.938Z,101158.91
2022-08-26T01:11:09.156Z,101160.78
2022-08-26T01:14:14.840Z,101157.66
2022-08-26T01:17:20.517Z,101160.75
2022-08-26T01:20:26.376Z,101166.50
2022-08-26T01:23:31.905Z,101171.44
2022-08-26T01:26:40.687Z,101168.31
2022-08-26T01:29:46.000Z,101170.13
2022-08-26T01:32:52.150Z,101167.41
2022-08-26T01:35:57.835Z,101162.59
2022-08-26T01:39:05.884Z,101157.81
2022-08-26T01:42:13.302Z,101158.63
2022-08-26T01:45:19.688Z,101157.44
2022-08-26T01:48:25.360Z,101153.72
2022-08-26T01:51:31.601Z,101152.69
2022-08-26T01:54:37.064Z,101155.56
2022-08-26T01:57:44.288Z,101154.09
2022-08-26T02:00:50.810Z,101156.59
2022-08-26T02:07:23.743Z,101145.84
2022-08-26T02:10:32.155Z,101158.50
2022-08-26T02:13:38.379Z,101156.06
2022-08-26T02:16:44.097Z,101156.56
2022-08-26T02:19:50.113Z,101145.66
2022-08-26T02:22:55.745Z,101148.16
2022-08-26T02:26:01.355Z,101140.16
2022-08-26T02:29:07.567Z,101134.59
2022-08-26T02:32:18.637Z,101129.22
2022-08-26T02:35:25.793Z,101118.88
2022-08-26T02:38:31.681Z,101115.56
2022-08-26T02:41:44.797Z,101117.59
2022-08-26T02:44:51.077Z,101119.25
2022-08-26T02:47:58.179Z,101119.88
2022-08-26T02:51:05.465Z,101119.63
2022-08-26T02:54:10.679Z,101111.97
2022-08-26T02:57:16.275Z,101108.25
2022-08-26T03:00:21.991Z,101102.88
2022-08-26T03:03:29.095Z,101096.28
2022-08-26T03:06:35.862Z,101101.28
2022-08-26T03:09:42.483Z,101098.78
2022-08-26T03:12:48.156Z,101094.06
2022-08-26T03:15:55.285Z,101092.19
2022-08-26T03:19:02.541Z,101094.06
2022-08-26T03:22:08.716Z,101085.81
2022-08-26T03:25:14.184Z,101082.53
2022-08-26T03:28:20.196Z,101082.28
2022-08-26T03:31:25.112Z,101074.63
2022-08-26T03:37:55.085Z,101071.94
2022-08-26T03:41:01.163Z,101069.69
2022-08-26T03:44:07.061Z,101062.72
2022-08-26T03:47:13.587Z,101056.13
2022-08-26T03:50:23.022Z,101062.53
2022-08-26T03:53:29.848Z,101059.63
2022-08-26T03:56:35.434Z,101068.13
2022-08-26T03:59:41.348Z,101061.72
2022-08-26T04:02:53.194Z,101061.94
2022-08-26T04:05:58.666Z,101058.22
2022-08-26T04:09:04.314Z,101063.00
2022-08-26T04:12:12.925Z,101060.59
2022-08-26T04:15:18.471Z,101069.91
2022-08-26T04:18:24.232Z,101069.72
2022-08-26T04:21:29.662Z,101074.06
2022-08-26T04:24:36.359Z,101068.94
2022-08-26T04:27:42.265Z,101073.25
2022-08-26T04:30:48.286Z,101074.31
2022-08-26T04:33:56.818Z,101071.84
2022-08-26T04:37:03.210Z,101077.22
2022-08-26T04:40:10.259Z,101067.47
2022-08-26T04:43:16.548Z,101061.25
2022-08-26T04:46:34.044Z,101065.81
2022-08-26T04:49:40.027Z,101062.88
2022-08-26T04:52:46.951Z,101057.22
2022-08-26T04:55:52.514Z,101056.16
2022-08-26T04:59:00.898Z,101054.63
2022-08-26T05:02:31.943Z,101055.66
2022-08-26T05:05:35.548Z,101052.75
2022-08-26T05:08:42.255Z,101056.25
2022-08-26T05:11:52.306Z,101046.22
2022-08-26T05:14:57.760Z,101051.09
2022-08-26T05:18:03.858Z,101045.41
2022-08-26T05:21:26.609Z,101047.59
2022-08-26T05:24:32.843Z,101040.66
2022-08-26T05:27:39.130Z,101042.13
2022-08-26T05:30:44.908Z,101041.13
2022-08-26T05:33:51.142Z,101046.31
2022-08-26T05:36:57.798Z,101041.59
2022-08-26T05:40:04.540Z,101047.19
2022-08-26T05:43:12.327Z,101042.94
2022-08-26T05:46:18.215Z,101044.09
2022-08-26T05:49:32.689Z,101041.13
2022-08-26T05:52:38.744Z,101046.22
2022-08-26T05:55:46.518Z,101047.59
2022-08-26T05:58:52.495Z,101054.44
2022-08-26T06:01:58.603Z,101044.44
2022-08-26T06:05:20.233Z,101042.66
2022-08-26T06:08:27.968Z,101041.09
2022-08-26T06:11:33.491Z,101049.56
2022-08-26T06:14:39.458Z,101051.13
2022-08-26T06:17:44.899Z,101049.53
2022-08-26T06:20:57.904Z,101036.53
2022-08-26T06:24:21.594Z,101045.97
2022-08-26T06:27:33.316Z,101041.59
2022-08-26T06:30:39.251Z,101039.44
2022-08-26T06:33:46.083Z,101027.41
2022-08-26T06:36:53.721Z,101030.22
2022-08-26T06:39:59.552Z,101031.44
2022-08-26T06:43:08.712Z,101031.88
2022-08-26T06:46:15.089Z,101031.53
2022-08-26T06:49:25.866Z,101036.97
2022-08-26T06:52:33.491Z,101040.06
2022-08-26T06:55:40.219Z,101037.38
2022-08-26T06:58:46.024Z,101039.72
2022-08-26T07:01:53.437Z,101036.72
2022-08-26T07:04:58.982Z,101033.50
2022-08-26T07:08:05.716Z,101030.13
2022-08-26T07:11:20.173Z,101020.16
2022-08-26T07:14:26.448Z,101029.97
2022-08-26T07:17:31.972Z,101020.56
2022-08-26T07:20:42.386Z,101014.28
2022-08-26T07:23:49.173Z,101018.13
2022-08-26T07:26:55.188Z,101013.97
2022-08-26T07:30:01.159Z,101012.41
2022-08-26T07:33:08.450Z,101008.53
2022-08-26T07:36:17.022Z,101011.88
2022-08-26T07:39:23.381Z,101009.81
2022-08-26T07:42:28.859Z,101004.50
2022-08-26T07:45:34.634Z,101004.78
2022-08-26T07:48:41.725Z,101008.66
2022-08-26T07:51:52.165Z,101002.66
2022-08-26T07:54:59.271Z,101006.75
2022-08-26T07:58:05.660Z,100997.78
2022-08-26T08:01:14.682Z,100997.78
2022-08-26T08:04:26.157Z,100995.31
2022-08-26T08:07:44.723Z,100991.19
2022-08-26T08:10:50.533Z,100982.41
2022-08-26T08:14:00.972Z,100986.25
2022-08-26T08:17:07.408Z,100980.78
2022-08-26T08:20:12.969Z,100987.31
2022-08-26T08:23:18.348Z,100989.22
2022-08-26T08:26:24.320Z,100971.38
2022-08-26T08:29:42.436Z,100982.00
2022-08-26T08:32:48.289Z,100980.63
2022-08-26T08:35:55.768Z,100969.63
2022-08-26T08:39:01.655Z,100975.09
2022-08-26T08:42:07.982Z,100971.00
2022-08-26T08:45:15.419Z,100969.13
2022-08-26T08:48:22.520Z,100959.81
2022-08-26T08:51:34.083Z,100959.50
2022-08-26T08:54:47.241Z,100952.91
2022-08-26T08:57:53.688Z,100954.06
2022-08-26T09:00:59.683Z,100952.91
2022-08-26T09:04:05.185Z,100946.56
2022-08-26T09:07:32.168Z,100944.28
2022-08-26T09:10:39.100Z,100945.59
2022-08-26T09:13:44.941Z,100945.84
2022-08-26T09:16:51.778Z,100939.19
2022-08-26T09:19:58.883Z,100937.88
2022-08-26T09:23:04.975Z,100932.53
2022-08-26T09:26:10.715Z,100929.28
2022-08-26T09:29:16.446Z,100924.38
2022-08-26T09:32:24.335Z,100930.38
2022-08-26T09:35:31.721Z,100920.41
2022-08-26T09:38:37.725Z,100921.88
2022-08-26T09:41:43.664Z,100924.28
2022-08-26T09:44:49.729Z,100916.69
2022-08-26T09:47:55.201Z,100904.56
2022-08-26T09:51:00.860Z,100901.69
2022-08-26T09:54:08.147Z,100908.69
2022-08-26T09:57:13.695Z,100909.22
2022-08-26T10:00:19.755Z,100900.59
2022-08-26T10:03:25.825Z,100893.94
2022-08-26T10:06:31.524Z,100893.50
2022-08-26T10:09:36.881Z,100883.81
2022-08-26T10:12:42.494Z,100887.56
2022-08-26T10:15:50.821Z,100883.50
2022-08-26T10:18:59.984Z,100883.50
2022-08-26T10:22:06.139Z,100880.69
2022-08-26T10:25:26.773Z,100882.50
2022-08-26T10:28:32.056Z,100887.94
2022-08-26T10:31:48.297Z,100878.47
2022-08-26T10:34:57.993Z,100874.84
2022-08-26T10:38:04.922Z,100878.25
2022-08-26T10:41:13.123Z,100880.34
2022-08-26T10:44:21.524Z,100872.84
2022-08-26T10:47:47.714Z,100877.34
2022-08-26T10:50:55.826Z,100867.28
2022-08-26T10:54:02.339Z,100866.38
2022-08-26T10:57:09.605Z,100843.94
2022-08-26T11:00:29.005Z,100850.91
2022-08-26T11:03:49.606Z,100849.88
2022-08-26T11:06:55.754Z,100851.84
2022-08-26T11:10:01.862Z,100840.28
2022-08-26T11:13:07.944Z,100844.97
2022-08-26T11:16:13.934Z,100835.09
2022-08-26T11:19:19.482Z,100837.22
2022-08-26T11:22:31.180Z,100844.41
2022-08-26T11:25:37.029Z,100834.31
2022-08-26T11:28:44.229Z,100841.84
2022-08-26T11:31:50.482Z,100834.84
2022-08-26T11:34:56.758Z,100833.81
2022-08-26T11:38:04.224Z,100826.19
2022-08-26T11:41:09.998Z,100821.06
2022-08-26T11:44:15.628Z,100818.47
2022-08-26T11:47:21.402Z,100816.91
2022-08-26T11:50:47.182Z,100813.84
2022-08-26T11:53:53.633Z,100809.38
2022-08-26T11:56:59.464Z,100805.13
2022-08-26T12:00:12.027Z,100798.91
2022-08-26T12:03:19.645Z,100792.75
2022-08-26T12:06:46.382Z,100794.03
2022-08-26T12:09:55.087Z,100804.66
2022-08-26T12:13:02.081Z,100787.56
2022-08-26T12:16:07.814Z,100789.59
2022-08-26T12:19:13.365Z,100785.72
2022-08-26T12:22:19.137Z,100788.59
2022-08-26T12:25:28.083Z,100780.47
2022-08-26T12:28:41.918Z,100775.34
2022-08-26T12:31:48.162Z,100779.03
2022-08-26T12:34:53.750Z,100760.25
2022-08-26T12:37:59.326Z,100767.50
2022-08-26T12:41:06.343Z,100754.25
2022-08-26T12:44:12.094Z,100762.19
2022-08-26T12:47:23.340Z,100752.00
2022-08-26T12:50:40.717Z,100745.66
2022-08-26T12:53:47.515Z,100756.91
2022-08-26T12:56:54.306Z,100759.78
2022-08-26T12:59:59.972Z,100749.78
2022-08-26T13:03:05.753Z,100749.75
2022-08-26T13:06:16.134Z,100752.94
2022-08-26T13:09:21.929Z,100749.34
2022-08-26T13:12:27.818Z,100750.16
2022-08-26T13:15:33.214Z,100754.88
2022-08-26T13:18:40.216Z,100750.78
2022-08-26T13:21:47.870Z,100742.81
2022-08-26T13:24:54.310Z,100740.06
2022-08-26T13:28:06.207Z,100736.50
2022-08-26T13:31:12.023Z,100731.72
2022-08-26T13:34:18.507Z,100733.56
2022-08-26T13:37:34.712Z,100726.94
2022-08-26T13:40:41.347Z,100732.44
2022-08-26T13:43:47.366Z,100728.78
2022-08-26T13:46:53.765Z,100723.22
2022-08-26T13:50:00.612Z,100721.38
2022-08-26T13:53:06.444Z,100719.81
2022-08-26T13:56:13.011Z,100720.34
2022-08-26T13:59:19.131Z,100715.03
2022-08-26T14:02:25.361Z,100713.03
2022-08-26T14:05:31.501Z,100712.59
2022-08-26T14:08:37.369Z,100708.97
2022-08-26T14:11:50.800Z,100705.38
2022-08-26T14:15:00.579Z,100709.59
2022-08-26T14:18:06.582Z,100700.25
2022-08-26T14:21:14.728Z,100699.72
2022-08-26T14:24:20.360Z,100697.31
2022-08-26T14:27:29.877Z,100697.97
2022-08-26T14:30:35.539Z,100688.03
2022-08-26T14:33:41.669Z,100690.19
2022-08-26T14:36:54.861Z,100692.78
2022-08-26T14:40:01.091Z,100691.00
2022-08-26T14:43:07.586Z,100686.03
2022-08-26T14:46:13.066Z,100696.31
2022-08-26T14:49:19.551Z,100688.47
2022-08-26T14:52:25.670Z,100683.56
2022-08-26T14:55:30.311Z,100701.47
2022-08-26T14:58:36.391Z,100688.34
2022-08-26T15:01:42.332Z,100687.28
2022-08-26T15:04:47.962Z,100694.44
2022-08-26T15:07:53.712Z,100685.25
2022-08-26T15:11:00.224Z,100684.81
2022-08-26T15:14:19.249Z,100679.97
2022-08-26T15:17:25.889Z,100668.41
2022-08-26T15:23:42.552Z,100672.31
2022-08-26T15:26:53.341Z,100669.09
2022-08-26T15:29:59.481Z,100667.72
2022-08-26T15:33:05.454Z,100667.53
2022-08-26T15:36:21.233Z,100658.75
2022-08-26T15:39:26.592Z,100666.16
2022-08-26T15:42:32.399Z,100657.16
2022-08-26T15:45:38.194Z,100661.81
2022-08-26T15:48:43.849Z,100657.72
2022-08-26T15:51:52.771Z,100657.53
2022-08-26T15:54:58.649Z,100665.56
2022-08-26T15:58:05.748Z,100652.72
2022-08-26T16:01:27.514Z,100652.72
2022-08-26T16:04:33.463Z,100652.97
2022-08-26T16:07:40.763Z,100644.72
2022-08-26T16:10:50.046Z,100655.09
2022-08-26T16:13:55.832Z,100646.97
2022-08-26T16:17:01.635Z,100639.63
2022-08-26T16:20:07.994Z,100639.09
2022-08-26T16:23:13.490Z,100641.59
2022-08-26T16:26:18.840Z,100632.84
2022-08-26T16:29:24.671Z,100633.41
2022-08-26T16:32:31.367Z,100635.53
2022-08-26T16:35:37.233Z,100626.25
2022-08-26T16:38:43.291Z,100628.19
2022-08-26T16:41:48.990Z,100625.69
2022-08-26T16:44:54.447Z,100621.59
2022-08-26T16:48:00.531Z,100621.94
2022-08-26T16:51:06.555Z,100613.47
2022-08-26T16:54:11.833Z,100616.19
2022-08-26T16:57:17.502Z,100616.53
2022-08-26T17:00:24.861Z,100614.94
2022-08-26T17:03:30.214Z,100606.28
2022-08-26T17:06:35.666Z,100624.38
2022-08-26T17:09:41.696Z,100623.38
2022-08-26T17:12:48.480Z,100632.97
2022-08-26T17:15:58.509Z,100625.66
2022-08-26T17:19:05.868Z,100630.06
2022-08-26T17:22:11.707Z,100629.28
2022-08-26T17:25:17.537Z,100618.69
2022-08-26T17:28:23.957Z,100635.94
2022-08-26T17:31:29.382Z,100631.56
2022-08-26T17:34:35.163Z,100640.59
2022-08-26T17:37:40.675Z,100637.34
2022-08-26T17:40:47.182Z,100635.16
2022-08-26T17:43:52.580Z,100642.56
2022-08-26T17:46:58.468Z,100637.66
2022-08-26T17:50:08.190Z,100636.03
2022-08-26T17:53:18.831Z,100634.94
2022-08-26T17:56:25.577Z,100638.75
2022-08-26T17:59:31.364Z,100649.69
2022-08-26T18:02:37.921Z,100657.88
2022-08-26T18:05:43.753Z,100659.81
2022-08-26T18:08:49.591Z,100657.63
2022-08-26T18:11:55.359Z,100659.78
2022-08-26T18:15:00.863Z,100653.81
2022-08-26T18:18:06.598Z,100663.63
2022-08-26T18:21:13.743Z,100667.44
2022-08-26T18:24:19.085Z,100656.81
2022-08-26T18:27:24.627Z,100655.44
2022-08-26T18:30:30.131Z,100645.09
2022-08-26T18:33:35.652Z,100652.47
2022-08-26T18:36:42.682Z,100654.91
2022-08-26T18:39:48.713Z,100649.16
2022-08-26T18:42:55.384Z,100645.91
2022-08-26T18:46:01.421Z,100638.84
2022-08-26T18:49:08.221Z,100633.59
2022-08-26T18:52:13.826Z,100639.31
2022-08-26T18:55:19.469Z,100641.22
2022-08-26T18:58:25.653Z,100640.13
2022-08-26T19:01:30.925Z,100639.31
2022-08-26T19:04:37.286Z,100646.66
2022-08-26T19:07:44.248Z,100643.41
2022-08-26T19:10:54.052Z,100637.97
2022-08-26T19:13:59.607Z,100643.69
2022-08-26T19:17:05.637Z,100638.50
2022-08-26T19:20:12.082Z,100630.31
2022-08-26T19:23:33.583Z,100628.38
2022-08-26T19:26:40.071Z,100646.38
2022-08-26T19:32:32.305Z,100643.63
2022-08-26T19:35:37.700Z,100636.53
2022-08-26T19:38:44.413Z,100643.13
2022-08-26T19:41:49.757Z,100634.66
2022-08-26T19:45:24.946Z,100635.75
2022-08-26T19:48:30.983Z,100636.28
2022-08-26T19:51:36.948Z,100637.38
2022-08-26T19:54:42.751Z,100644.72
2022-08-26T19:57:50.557Z,100632.47
2022-08-26T20:00:56.549Z,100621.03
2022-08-26T20:04:03.605Z,100627.84
2022-08-26T20:07:09.134Z,100617.50
2022-08-26T20:10:15.016Z,100625.69
2022-08-26T20:13:21.933Z,100620.50
2022-08-26T20:16:27.575Z,100611.22
2022-08-26T20:19:51.201Z,100618.06
2022-08-26T20:22:56.577Z,100620.75
2022-08-26T20:26:02.950Z,100613.66
2022-08-26T20:29:09.271Z,100627.84
2022-08-26T20:32:14.847Z,100622.44
2022-08-26T20:35:21.394Z,100627.59
2022-08-26T20:38:26.921Z,100628.41
2022-08-26T20:41:39.097Z,100628.13
2022-08-26T20:44:51.344Z,100631.72
2022-08-26T20:48:00.958Z,100635.81
2022-08-26T20:51:06.536Z,100631.19
2022-08-26T20:54:13.560Z,100631.47
2022-08-26T20:57:22.385Z,100630.09
2022-08-26T21:00:28.908Z,100627.06
2022-08-26T21:03:34.401Z,100633.88
2022-08-26T21:06:40.251Z,100624.59
2022-08-26T21:09:49.564Z,100624.03
2022-08-26T21:12:58.208Z,100624.59
2022-08-26T21:16:04.051Z,100619.97
2022-08-26T21:19:10.709Z,100622.69
2022-08-26T21:22:16.276Z,100615.88
2022-08-26T21:25:21.683Z,100610.97
2022-08-26T21:28:27.769Z,100616.16
2022-08-26T21:31:33.502Z,100614.50
2022-08-26T21:34:38.858Z,100613.75
2022-08-26T21:37:45.251Z,100608.56
2022-08-26T21:40:58.566Z,100613.19
2022-08-26T21:44:04.333Z,100608.53
2022-08-26T21:47:09.839Z,100608.25
2022-08-26T21:50:16.245Z,100603.06
2022-08-26T21:53:21.576Z,100600.34
2022-08-26T21:56:27.166Z,100594.91
2022-08-26T21:59:32.984Z,100592.72
2022-08-26T22:02:39.049Z,100579.38
2022-08-26T22:05:44.813Z,100585.13
2022-08-26T22:08:50.603Z,100589.75
2022-08-26T22:11:56.805Z,100581.56
2022-08-26T22:15:03.853Z,100585.41
2022-08-26T22:18:10.038Z,100585.41
2022-08-26T22:21:15.831Z,100579.69
2022-08-26T22:24:21.662Z,100583.50
2022-08-26T22:27:27.384Z,100581.84
2022-08-26T22:30:35.173Z,100580.75
2022-08-26T22:33:41.149Z,100586.22
2022-08-26T22:36:46.842Z,100585.34
2022-08-26T22:39:52.654Z,100580.19
2022-08-26T22:43:00.484Z,100584.00
2022-08-26T22:46:09.868Z,100576.13
2022-08-26T22:49:17.211Z,100573.38
2022-08-26T22:52:22.897Z,100562.75
2022-08-26T22:55:28.541Z,100562.19
2022-08-26T22:58:34.267Z,100562.22
2022-08-26T23:01:39.746Z,100555.94
2022-08-26T23:04:55.320Z,100554.00
2022-08-26T23:08:01.180Z,100556.19
2022-08-26T23:11:07.042Z,100553.47
2022-08-26T23:14:12.756Z,100560.25
2022-08-26T23:17:18.254Z,100544.72
2022-08-26T23:20:24.640Z,100534.66
2022-08-26T23:23:31.255Z,100525.38
2022-08-26T23:26:37.013Z,100534.63
2022-08-26T23:29:42.724Z,100528.38
2022-08-26T23:32:49.442Z,100529.16
2022-08-26T23:35:54.101Z,100509.00
2022-08-26T23:38:59.474Z,100506.28
2022-08-26T23:42:06.654Z,100514.97
2022-08-26T23:45:12.135Z,100508.97
2022-08-26T23:48:19.499Z,100512.19
2022-08-26T23:51:43.334Z,100516.78
2022-08-26T23:54:52.530Z,100518.91
2022-08-26T23:57:57.970Z,100516.72
